El Paso International Airport
KELP : now visible

Airfield :











YOU CAN JOIN US ON...

 
LOGIN :

Register | Disclaimer

   EN    FR    IT 

 









Legend :    VFR   Marginal VFR   IFR   Intensive IFR   Very Intensive IFR
Visi :
Ceiling :
>= 8 km
>= 3000ft
5 to 8 km
1000 to 3000 ft
1500m to 5 km
500 to 1000 ft
800 to 1500m
200 to 500 ft
< 800m
< 200 ft
Symbols :   Thunderstorms  Fog  Heavy snow  Heavy precipitations  Wind > 20 kt






- Airport Elevation : 3959 ft
- IATA code : ELP


KELP - El Paso International

CURRENT METAR :
  • 191951Z VRB03KT 10SM FEW250 30/M06 A3002 RMK AO2 SLP089 T03001056

EXPIRED METARs :
  • 191851Z 09003KT 10SM FEW250 28/M06 A3006 RMK AO2 SLP100 T02781061
  • 191751Z 00000KT 10SM FEW250 25/M06 A3008 RMK AO2 SLP115 T02501061 10256 20117 58000

TAF KELP
Valid from the 19 at 18:00 until the 20 at 18:00 UTC


191722Z 1918/2018 25006KT P6SM FEW250
FM201200 32005KT P6SM SKC
KZAB FIR / North America



MET'MAP, your aeronautical weather chart ! - Copyright ORBIFLY December 2007 - Disclaimer

ORBIFLY MET'MAP TEAM :

Programming & Development : Alexandra Zaïnal
Concept & original design : Baudouin d'Aumeries
Assistance for programming : Marc-Olivier Méhu
Technical & hardware support : Manuel Goepfert

Contact : metmap@orbifly.com




SOURCES & CREDITS :

   NOAA       Earth
Advisory